sensor_id;sensor_type;location;lat;lon;timestamp;pressure;altitude;pressure_sealevel;temperature;humidity
6024;BME280;3040;42.654;23.296;2023-04-07T00:00:21;93943.09;;;3.18;55.38
6024;BME280;3040;42.654;23.296;2023-04-07T00:02:50;93927.25;;;3.10;55.19
6024;BME280;3040;42.654;23.296;2023-04-07T00:05:17;93934.31;;;3.23;55.56
6024;BME280;3040;42.654;23.296;2023-04-07T00:07:43;93930.84;;;3.14;55.10
6024;BME280;3040;42.654;23.296;2023-04-07T00:10:10;93922.38;;;3.17;54.94
6024;BME280;3040;42.654;23.296;2023-04-07T00:12:37;93937.19;;;3.13;55.43
6024;BME280;3040;42.654;23.296;2023-04-07T00:15:05;93929.88;;;3.32;54.72
6024;BME280;3040;42.654;23.296;2023-04-07T00:17:32;93932.22;;;3.11;54.86
6024;BME280;3040;42.654;23.296;2023-04-07T00:20:00;93937.50;;;2.98;55.64
6024;BME280;3040;42.654;23.296;2023-04-07T00:22:27;93927.22;;;3.01;55.95
6024;BME280;3040;42.654;23.296;2023-04-07T00:24:54;93938.31;;;3.20;55.90
6024;BME280;3040;42.654;23.296;2023-04-07T00:27:21;93926.94;;;3.25;55.59
6024;BME280;3040;42.654;23.296;2023-04-07T00:29:47;93929.50;;;3.03;55.29
6024;BME280;3040;42.654;23.296;2023-04-07T00:32:14;93921.09;;;3.14;54.53
6024;BME280;3040;42.654;23.296;2023-04-07T00:34:41;93921.50;;;3.08;54.61
6024;BME280;3040;42.654;23.296;2023-04-07T00:37:09;93658.75;;;1.35;53.74
6024;BME280;3040;42.654;23.296;2023-04-07T00:39:36;93923.38;;;3.07;54.38
6024;BME280;3040;42.654;23.296;2023-04-07T00:42:03;93774.25;;;2.01;54.72
6024;BME280;3040;42.654;23.296;2023-04-07T00:44:31;93931.97;;;2.99;55.24
6024;BME280;3040;42.654;23.296;2023-04-07T00:46:58;93923.13;;;2.95;55.00
6024;BME280;3040;42.654;23.296;2023-04-07T00:49:25;93922.94;;;2.92;55.38
6024;BME280;3040;42.654;23.296;2023-04-07T00:51:53;93933.31;;;2.97;55.27
6024;BME280;3040;42.654;23.296;2023-04-07T00:54:22;93771.44;;;1.98;55.40
6024;BME280;3040;42.654;23.296;2023-04-07T00:56:50;93917.69;;;2.92;55.54
6024;BME280;3040;42.654;23.296;2023-04-07T00:59:18;93926.44;;;3.01;54.93
6024;BME280;3040;42.654;23.296;2023-04-07T01:01:52;93923.31;;;2.99;55.31
6024;BME280;3040;42.654;23.296;2023-04-07T01:04:26;93925.25;;;3.07;55.18
6024;BME280;3040;42.654;23.296;2023-04-07T01:06:58;93807.13;;;2.35;55.58
6024;BME280;3040;42.654;23.296;2023-04-07T01:09:36;93913.28;;;3.23;54.64
6024;BME280;3040;42.654;23.296;2023-04-07T01:12:07;93918.47;;;3.14;54.92
6024;BME280;3040;42.654;23.296;2023-04-07T01:14:40;93919.63;;;3.00;54.68
6024;BME280;3040;42.654;23.296;2023-04-07T01:17:09;93917.88;;;2.95;55.34
6024;BME280;3040;42.654;23.296;2023-04-07T01:19:37;93921.88;;;2.93;55.96
6024;BME280;3040;42.654;23.296;2023-04-07T01:22:09;93913.28;;;3.01;55.43
6024;BME280;3040;42.654;23.296;2023-04-07T01:25:01;93771.50;;;2.07;55.15
6024;BME280;3040;42.654;23.296;2023-04-07T01:27:36;93902.19;;;3.04;54.87
6024;BME280;3040;42.654;23.296;2023-04-07T01:30:08;93902.19;;;3.26;54.91
6024;BME280;3040;42.654;23.296;2023-04-07T01:32:36;93904.47;;;3.41;54.46
6024;BME280;3040;42.654;23.296;2023-04-07T01:35:06;93903.72;;;3.27;55.12
6024;BME280;3040;42.654;23.296;2023-04-07T01:37:36;93903.03;;;3.35;54.55
6024;BME280;3040;42.654;23.296;2023-04-07T01:40:06;93855.03;;;2.99;54.24
6024;BME280;3040;42.654;23.296;2023-04-07T01:42:34;93906.13;;;3.15;54.28
6024;BME280;3040;42.654;23.296;2023-04-07T01:45:06;93903.38;;;3.20;54.41
6024;BME280;3040;42.654;23.296;2023-04-07T01:47:34;93896.69;;;3.36;54.28
6024;BME280;3040;42.654;23.296;2023-04-07T01:50:02;93873.09;;;3.22;52.68
6024;BME280;3040;42.654;23.296;2023-04-07T01:52:30;93899.69;;;3.43;53.00
6024;BME280;3040;42.654;23.296;2023-04-07T01:54:58;93889.88;;;3.35;53.23
6024;BME280;3040;42.654;23.296;2023-04-07T01:57:25;93900.50;;;3.52;53.16
6024;BME280;3040;42.654;23.296;2023-04-07T01:59:52;93867.22;;;3.25;52.52
6024;BME280;3040;42.654;23.296;2023-04-07T02:02:20;93899.78;;;3.38;52.39
6024;BME280;3040;42.654;23.296;2023-04-07T02:04:53;93892.88;;;3.42;52.42
6024;BME280;3040;42.654;23.296;2023-04-07T02:07:26;93891.28;;;3.63;52.06
6024;BME280;3040;42.654;23.296;2023-04-07T02:09:57;93899.00;;;3.60;52.63
6024;BME280;3040;42.654;23.296;2023-04-07T02:12:26;93792.22;;;2.44;55.28
6024;BME280;3040;42.654;23.296;2023-04-07T02:14:55;93897.41;;;3.06;55.18
6024;BME280;3040;42.654;23.296;2023-04-07T02:17:24;93890.59;;;3.27;54.30
6024;BME280;3040;42.654;23.296;2023-04-07T02:19:52;93894.19;;;3.31;53.82
6024;BME280;3040;42.654;23.296;2023-04-07T02:22:21;93893.06;;;3.23;53.12
6024;BME280;3040;42.654;23.296;2023-04-07T02:24:48;93888.03;;;3.36;52.60
6024;BME280;3040;42.654;23.296;2023-04-07T02:27:16;93886.53;;;3.43;52.94
6024;BME280;3040;42.654;23.296;2023-04-07T02:29:42;93900.50;;;3.52;52.45
6024;BME280;3040;42.654;23.296;2023-04-07T02:32:09;93888.81;;;3.36;52.81
6024;BME280;3040;42.654;23.296;2023-04-07T02:34:37;93895.38;;;3.47;52.77
6024;BME280;3040;42.654;23.296;2023-04-07T02:37:04;93907.38;;;3.40;52.34
6024;BME280;3040;42.654;23.296;2023-04-07T02:39:31;93901.13;;;3.49;53.31
6024;BME280;3040;42.654;23.296;2023-04-07T02:41:58;93895.31;;;3.69;52.68
6024;BME280;3040;42.654;23.296;2023-04-07T02:44:25;93901.56;;;3.74;51.99
6024;BME280;3040;42.654;23.296;2023-04-07T02:46:52;93899.78;;;3.91;52.07
6024;BME280;3040;42.654;23.296;2023-04-07T02:49:18;93888.91;;;3.53;52.04
6024;BME280;3040;42.654;23.296;2023-04-07T02:51:47;93908.50;;;3.47;52.25
6024;BME280;3040;42.654;23.296;2023-04-07T02:54:14;93708.00;;;2.10;52.87
6024;BME280;3040;42.654;23.296;2023-04-07T02:56:41;93900.19;;;3.32;52.75
6024;BME280;3040;42.654;23.296;2023-04-07T02:59:07;93908.56;;;3.34;52.84
6024;BME280;3040;42.654;23.296;2023-04-07T03:01:34;93910.06;;;3.48;52.77
6024;BME280;3040;42.654;23.296;2023-04-07T03:04:01;93906.09;;;3.59;52.83
6024;BME280;3040;42.654;23.296;2023-04-07T03:06:28;93917.34;;;3.82;52.18
6024;BME280;3040;42.654;23.296;2023-04-07T03:08:57;93909.81;;;3.58;52.44
6024;BME280;3040;42.654;23.296;2023-04-07T03:11:24;93930.75;;;3.41;52.47
6024;BME280;3040;42.654;23.296;2023-04-07T03:13:51;93900.66;;;3.25;53.00
6024;BME280;3040;42.654;23.296;2023-04-07T03:16:18;93903.19;;;3.16;53.44
6024;BME280;3040;42.654;23.296;2023-04-07T03:18:45;93921.66;;;3.25;53.60
6024;BME280;3040;42.654;23.296;2023-04-07T03:21:12;93910.38;;;3.24;53.96
6024;BME280;3040;42.654;23.296;2023-04-07T03:23:38;93912.47;;;3.36;53.93
6024;BME280;3040;42.654;23.296;2023-04-07T03:26:07;93905.91;;;3.25;54.26
6024;BME280;3040;42.654;23.296;2023-04-07T03:28:34;93910.78;;;3.18;54.50
6024;BME280;3040;42.654;23.296;2023-04-07T03:31:00;93910.78;;;3.18;54.51
6024;BME280;3040;42.654;23.296;2023-04-07T03:33:28;93915.44;;;3.43;54.54
6024;BME280;3040;42.654;23.296;2023-04-07T03:35:54;93907.09;;;3.72;53.74
6024;BME280;3040;42.654;23.296;2023-04-07T03:38:21;93865.34;;;3.17;53.67
6024;BME280;3040;42.654;23.296;2023-04-07T03:40:48;93750.47;;;2.34;54.00
6024;BME280;3040;42.654;23.296;2023-04-07T03:43:16;93899.38;;;3.22;54.33
6024;BME280;3040;42.654;23.296;2023-04-07T03:45:43;93906.78;;;3.43;53.78
6024;BME280;3040;42.654;23.296;2023-04-07T03:48:10;93900.25;;;3.40;53.34
6024;BME280;3040;42.654;23.296;2023-04-07T03:50:38;93909.47;;;3.07;54.50
6024;BME280;3040;42.654;23.296;2023-04-07T03:53:05;93898.34;;;3.10;54.51
6024;BME280;3040;42.654;23.296;2023-04-07T03:55:34;93898.72;;;2.95;55.11
6024;BME280;3040;42.654;23.296;2023-04-07T03:58:02;93910.66;;;3.01;54.87
6024;BME280;3040;42.654;23.296;2023-04-07T04:00:31;93901.47;;;3.12;55.15
6024;BME280;3040;42.654;23.296;2023-04-07T04:02:58;93908.50;;;3.03;55.06
6024;BME280;3040;42.654;23.296;2023-04-07T04:05:25;93918.63;;;2.96;55.52
6024;BME280;3040;42.654;23.296;2023-04-07T04:07:52;93914.56;;;2.90;55.14
6024;BME280;3040;42.654;23.296;2023-04-07T04:10:19;93923.69;;;3.28;55.31
6024;BME280;3040;42.654;23.296;2023-04-07T04:12:47;93897.63;;;2.96;55.27
6024;BME280;3040;42.654;23.296;2023-04-07T04:15:15;93921.63;;;3.03;54.75
6024;BME280;3040;42.654;23.296;2023-04-07T04:17:43;93759.69;;;1.95;55.34
6024;BME280;3040;42.654;23.296;2023-04-07T04:20:10;93919.38;;;3.32;54.37
6024;BME280;3040;42.654;23.296;2023-04-07T04:22:37;93907.88;;;3.19;55.12
6024;BME280;3040;42.654;23.296;2023-04-07T04:25:04;93922.25;;;3.44;54.57
6024;BME280;3040;42.654;23.296;2023-04-07T04:27:31;93920.81;;;3.38;54.68
6024;BME280;3040;42.654;23.296;2023-04-07T04:29:58;93909.59;;;3.46;54.13
6024;BME280;3040;42.654;23.296;2023-04-07T04:32:25;93929.63;;;3.64;53.69
6024;BME280;3040;42.654;23.296;2023-04-07T04:34:56;93940.94;;;3.96;53.25
6024;BME280;3040;42.654;23.296;2023-04-07T04:37:22;93929.06;;;3.67;53.76
6024;BME280;3040;42.654;23.296;2023-04-07T04:39:50;93923.34;;;3.43;53.76
6024;BME280;3040;42.654;23.296;2023-04-07T04:42:16;93930.63;;;3.46;54.02
6024;BME280;3040;42.654;23.296;2023-04-07T04:44:43;93891.25;;;3.33;54.11
6024;BME280;3040;42.654;23.296;2023-04-07T04:47:10;93928.94;;;3.73;53.87
6024;BME280;3040;42.654;23.296;2023-04-07T04:49:37;93944.50;;;3.91;53.49
6024;BME280;3040;42.654;23.296;2023-04-07T04:52:05;93935.25;;;3.72;53.22
6024;BME280;3040;42.654;23.296;2023-04-07T04:54:32;93937.59;;;3.73;52.81
6024;BME280;3040;42.654;23.296;2023-04-07T04:56:59;93945.56;;;3.90;53.01
6024;BME280;3040;42.654;23.296;2023-04-07T04:59:26;93785.69;;;3.08;52.02
6024;BME280;3040;42.654;23.296;2023-04-07T05:01:52;93940.69;;;4.06;52.45
6024;BME280;3040;42.654;23.296;2023-04-07T05:04:19;93954.03;;;3.79;51.49
6024;BME280;3040;42.654;23.296;2023-04-07T05:06:46;93952.34;;;3.83;51.48
6024;BME280;3040;42.654;23.296;2023-04-07T05:09:14;93954.91;;;4.05;51.81
6024;BME280;3040;42.654;23.296;2023-04-07T05:11:41;93951.63;;;4.30;50.82
6024;BME280;3040;42.654;23.296;2023-04-07T05:14:08;93828.66;;;3.65;51.02
6024;BME280;3040;42.654;23.296;2023-04-07T05:16:35;93967.91;;;4.32;50.82
6024;BME280;3040;42.654;23.296;2023-04-07T05:19:02;93961.84;;;4.80;50.65
6024;BME280;3040;42.654;23.296;2023-04-07T05:21:29;93964.50;;;5.14;53.50
6024;BME280;3040;42.654;23.296;2023-04-07T05:23:56;93965.47;;;5.36;55.00
6024;BME280;3040;42.654;23.296;2023-04-07T05:26:24;93938.94;;;5.32;50.53
6024;BME280;3040;42.654;23.296;2023-04-07T05:28:51;93973.50;;;5.82;52.61
6024;BME280;3040;42.654;23.296;2023-04-07T05:31:18;93971.03;;;5.94;53.18
6024;BME280;3040;42.654;23.296;2023-04-07T05:33:45;93974.78;;;5.59;49.75
6024;BME280;3040;42.654;23.296;2023-04-07T05:36:11;93971.03;;;5.94;53.15
6024;BME280;3040;42.654;23.296;2023-04-07T05:38:38;93973.44;;;6.17;53.79
6024;BME280;3040;42.654;23.296;2023-04-07T05:41:05;93969.38;;;6.28;54.20
6024;BME280;3040;42.654;23.296;2023-04-07T05:43:34;93970.31;;;6.32;54.93
6024;BME280;3040;42.654;23.296;2023-04-07T05:46:01;93963.09;;;6.41;54.16
6024;BME280;3040;42.654;23.296;2023-04-07T05:48:27;93976.22;;;6.58;54.30
6024;BME280;3040;42.654;23.296;2023-04-07T05:50:54;93980.44;;;6.59;54.32
6024;BME280;3040;42.654;23.296;2023-04-07T05:53:21;93947.19;;;6.58;53.70
6024;BME280;3040;42.654;23.296;2023-04-07T05:55:48;93973.16;;;6.85;53.62
6024;BME280;3040;42.654;23.296;2023-04-07T05:58:15;93974.34;;;6.97;52.86
6024;BME280;3040;42.654;23.296;2023-04-07T06:00:43;93984.44;;;6.65;51.65
6024;BME280;3040;42.654;23.296;2023-04-07T06:03:10;93980.06;;;6.69;52.35
6024;BME280;3040;42.654;23.296;2023-04-07T06:05:37;93977.72;;;6.76;52.10
6024;BME280;3040;42.654;23.296;2023-04-07T06:08:07;93977.75;;;6.68;52.73
6024;BME280;3040;42.654;23.296;2023-04-07T06:10:34;93976.06;;;6.25;53.62
6024;BME280;3040;42.654;23.296;2023-04-07T06:13:01;93970.47;;;6.27;53.52
6024;BME280;3040;42.654;23.296;2023-04-07T06:15:28;93981.53;;;6.11;48.11
6024;BME280;3040;42.654;23.296;2023-04-07T06:17:56;93978.41;;;6.27;49.18
6024;BME280;3040;42.654;23.296;2023-04-07T06:20:23;93981.91;;;6.77;50.58
6024;BME280;3040;42.654;23.296;2023-04-07T06:22:52;93986.09;;;7.08;48.78
6024;BME280;3040;42.654;23.296;2023-04-07T06:25:19;93975.81;;;6.56;44.64
6024;BME280;3040;42.654;23.296;2023-04-07T06:27:45;93976.50;;;6.36;45.26
6024;BME280;3040;42.654;23.296;2023-04-07T06:30:13;93980.38;;;6.30;45.48
6024;BME280;3040;42.654;23.296;2023-04-07T06:32:40;93969.66;;;6.35;45.97
6024;BME280;3040;42.654;23.296;2023-04-07T06:35:08;93973.16;;;6.56;45.36
6024;BME280;3040;42.654;23.296;2023-04-07T06:37:35;93955.16;;;6.49;44.82
6024;BME280;3040;42.654;23.296;2023-04-07T06:40:04;93971.97;;;6.74;46.33
6024;BME280;3040;42.654;23.296;2023-04-07T06:42:31;93978.53;;;7.18;44.39
6024;BME280;3040;42.654;23.296;2023-04-07T06:44:58;93974.53;;;6.91;44.40
6024;BME280;3040;42.654;23.296;2023-04-07T06:47:25;93957.69;;;6.37;44.57
6024;BME280;3040;42.654;23.296;2023-04-07T06:49:52;93974.94;;;6.35;45.03
6024;BME280;3040;42.654;23.296;2023-04-07T06:52:20;93968.09;;;6.34;45.42
6024;BME280;3040;42.654;23.296;2023-04-07T06:54:47;93969.78;;;6.76;46.27
6024;BME280;3040;42.654;23.296;2023-04-07T06:57:14;93965.56;;;6.46;46.97
6024;BME280;3040;42.654;23.296;2023-04-07T06:59:41;93965.38;;;6.51;45.80
6024;BME280;3040;42.654;23.296;2023-04-07T07:02:08;93976.22;;;6.58;46.25
6024;BME280;3040;42.654;23.296;2023-04-07T07:04:35;93945.69;;;5.85;47.60
6024;BME280;3040;42.654;23.296;2023-04-07T07:07:02;93986.44;;;6.39;46.38
6024;BME280;3040;42.654;23.296;2023-04-07T07:09:30;93981.41;;;6.46;45.62
6024;BME280;3040;42.654;23.296;2023-04-07T07:11:57;93976.69;;;6.69;45.30
6024;BME280;3040;42.654;23.296;2023-04-07T07:14:26;93991.72;;;6.39;46.33
6024;BME280;3040;42.654;23.296;2023-04-07T07:16:53;94000.28;;;6.27;46.06
6024;BME280;3040;42.654;23.296;2023-04-07T07:19:20;93960.41;;;6.03;45.73
6024;BME280;3040;42.654;23.296;2023-04-07T07:21:47;93870.03;;;5.51;46.03
6024;BME280;3040;42.654;23.296;2023-04-07T07:24:14;93848.81;;;5.39;46.21
6024;BME280;3040;42.654;23.296;2023-04-07T07:26:42;93991.19;;;6.45;45.65
6024;BME280;3040;42.654;23.296;2023-04-07T07:29:10;94001.03;;;6.45;46.49
6024;BME280;3040;42.654;23.296;2023-04-07T07:31:37;94001.94;;;6.49;45.57
6024;BME280;3040;42.654;23.296;2023-04-07T07:34:03;94002.00;;;6.32;45.65
6024;BME280;3040;42.654;23.296;2023-04-07T07:36:30;94002.94;;;6.19;47.22
6024;BME280;3040;42.654;23.296;2023-04-07T07:38:57;93992.97;;;6.33;46.20
6024;BME280;3040;42.654;23.296;2023-04-07T07:41:24;93863.44;;;5.83;45.38
6024;BME280;3040;42.654;23.296;2023-04-07T07:43:52;94009.69;;;6.54;45.34
6024;BME280;3040;42.654;23.296;2023-04-07T07:46:19;94019.94;;;6.47;45.80
6024;BME280;3040;42.654;23.296;2023-04-07T07:48:48;94014.59;;;6.64;45.12
6024;BME280;3040;42.654;23.296;2023-04-07T07:51:15;93980.63;;;6.54;44.85
6024;BME280;3040;42.654;23.296;2023-04-07T07:53:42;94013.91;;;6.84;44.92
6024;BME280;3040;42.654;23.296;2023-04-07T07:56:09;94009.66;;;6.92;45.02
6024;BME280;3040;42.654;23.296;2023-04-07T07:58:37;94014.56;;;7.31;44.78
6024;BME280;3040;42.654;23.296;2023-04-07T08:01:05;94012.31;;;7.42;43.51
6024;BME280;3040;42.654;23.296;2023-04-07T08:03:32;93919.44;;;6.93;43.24
6024;BME280;3040;42.654;23.296;2023-04-07T08:05:58;94010.88;;;7.86;41.67
6024;BME280;3040;42.654;23.296;2023-04-07T08:08:26;93938.22;;;7.42;42.22
6024;BME280;3040;42.654;23.296;2023-04-07T08:10:52;94028.53;;;8.15;41.17
6024;BME280;3040;42.654;23.296;2023-04-07T08:13:19;94013.53;;;8.19;41.71
6024;BME280;3040;42.654;23.296;2023-04-07T08:15:46;94010.25;;;7.48;41.42
6024;BME280;3040;42.654;23.296;2023-04-07T08:18:14;94016.84;;;7.62;42.23
6024;BME280;3040;42.654;23.296;2023-04-07T08:20:41;94008.63;;;7.34;42.86
6024;BME280;3040;42.654;23.296;2023-04-07T08:23:08;94002.00;;;7.28;43.72
6024;BME280;3040;42.654;23.296;2023-04-07T08:25:35;94014.13;;;7.50;42.99
6024;BME280;3040;42.654;23.296;2023-04-07T08:28:02;94022.94;;;7.96;42.87
6024;BME280;3040;42.654;23.296;2023-04-07T08:30:29;94016.25;;;8.10;41.88
6024;BME280;3040;42.654;23.296;2023-04-07T08:32:56;93868.91;;;7.16;42.23
6024;BME280;3040;42.654;23.296;2023-04-07T08:35:24;94005.00;;;7.81;41.75
6024;BME280;3040;42.654;23.296;2023-04-07T08:37:51;94017.88;;;6.99;43.43
6024;BME280;3040;42.654;23.296;2023-04-07T08:40:18;94024.88;;;6.95;44.17
6024;BME280;3040;42.654;23.296;2023-04-07T08:42:46;94014.44;;;7.28;44.38
6024;BME280;3040;42.654;23.296;2023-04-07T08:45:15;94012.50;;;7.58;42.88
6024;BME280;3040;42.654;23.296;2023-04-07T08:47:43;94018.50;;;7.88;43.09
6024;BME280;3040;42.654;23.296;2023-04-07T08:50:14;94007.38;;;7.94;41.20
6024;BME280;3040;42.654;23.296;2023-04-07T08:52:49;94007.78;;;7.84;41.65
6024;BME280;3040;42.654;23.296;2023-04-07T08:55:16;94023.59;;;7.72;42.30
6024;BME280;3040;42.654;23.296;2023-04-07T08:57:43;94011.44;;;8.12;41.39
6024;BME280;3040;42.654;23.296;2023-04-07T09:00:10;93987.22;;;8.02;41.25
6024;BME280;3040;42.654;23.296;2023-04-07T09:02:39;94019.63;;;8.65;40.80
6024;BME280;3040;42.654;23.296;2023-04-07T09:05:08;94008.94;;;8.97;39.71
6024;BME280;3040;42.654;23.296;2023-04-07T09:07:37;94015.75;;;9.23;39.11
6024;BME280;3040;42.654;23.296;2023-04-07T09:10:07;94011.84;;;9.57;38.96
6024;BME280;3040;42.654;23.296;2023-04-07T09:12:34;93877.81;;;8.58;39.26
6024;BME280;3040;42.654;23.296;2023-04-07T09:15:01;94012.06;;;9.64;38.60
6024;BME280;3040;42.654;23.296;2023-04-07T09:17:28;93860.31;;;8.82;38.29
6024;BME280;3040;42.654;23.296;2023-04-07T09:19:55;94005.84;;;9.60;37.95
6024;BME280;3040;42.654;23.296;2023-04-07T09:22:36;94002.69;;;9.42;38.55
6024;BME280;3040;42.654;23.296;2023-04-07T09:25:14;94014.56;;;9.20;39.10
6024;BME280;3040;42.654;23.296;2023-04-07T09:27:56;94022.53;;;8.96;39.72
6024;BME280;3040;42.654;23.296;2023-04-07T09:30:23;94013.78;;;8.71;39.86
6024;BME280;3040;42.654;23.296;2023-04-07T09:32:50;94027.38;;;8.94;40.51
6024;BME280;3040;42.654;23.296;2023-04-07T09:35:17;94023.38;;;8.76;39.49
6024;BME280;3040;42.654;23.296;2023-04-07T09:37:45;94031.28;;;8.06;41.31
6024;BME280;3040;42.654;23.296;2023-04-07T09:40:27;94022.38;;;7.49;41.66
6024;BME280;3040;42.654;23.296;2023-04-07T09:42:54;94021.50;;;7.65;42.88
6024;BME280;3040;42.654;23.296;2023-04-07T09:45:23;94015.66;;;7.72;42.26
6024;BME280;3040;42.654;23.296;2023-04-07T09:47:52;94026.81;;;7.98;43.05
6024;BME280;3040;42.654;23.296;2023-04-07T09:50:30;93994.13;;;8.27;43.18
6024;BME280;3040;42.654;23.296;2023-04-07T09:52:58;94022.09;;;8.04;42.08
6024;BME280;3040;42.654;23.296;2023-04-07T09:55:28;94037.34;;;8.40;40.69
6024;BME280;3040;42.654;23.296;2023-04-07T09:57:56;94024.50;;;8.99;40.58
6024;BME280;3040;42.654;23.296;2023-04-07T10:00:24;93883.34;;;8.41;38.78
6024;BME280;3040;42.654;23.296;2023-04-07T10:02:51;94022.41;;;9.81;39.90
6024;BME280;3040;42.654;23.296;2023-04-07T10:05:19;94021.94;;;9.91;37.95
6024;BME280;3040;42.654;23.296;2023-04-07T10:07:47;94014.78;;;9.79;39.31
6024;BME280;3040;42.654;23.296;2023-04-07T10:10:14;94021.19;;;10.93;37.89
6024;BME280;3040;42.654;23.296;2023-04-07T10:12:42;94032.00;;;10.26;36.78
6024;BME280;3040;42.654;23.296;2023-04-07T10:15:11;94026.56;;;9.94;38.11
6024;BME280;3040;42.654;23.296;2023-04-07T10:17:40;94031.31;;;9.49;39.22
6024;BME280;3040;42.654;23.296;2023-04-07T10:20:13;94031.09;;;9.54;38.35
6024;BME280;3040;42.654;23.296;2023-04-07T10:22:42;94031.47;;;9.80;40.04
6024;BME280;3040;42.654;23.296;2023-04-07T10:25:12;94026.28;;;9.07;39.49
6024;BME280;3040;42.654;23.296;2023-04-07T10:27:46;94024.59;;;8.66;40.69
6024;BME280;3040;42.654;23.296;2023-04-07T10:30:18;94025.03;;;8.23;41.31
6024;BME280;3040;42.654;23.296;2023-04-07T10:32:46;94027.00;;;8.59;40.89
6024;BME280;3040;42.654;23.296;2023-04-07T10:35:13;94031.13;;;9.05;40.02
6024;BME280;3040;42.654;23.296;2023-04-07T10:38:11;94035.63;;;8.23;41.80
6024;BME280;3040;42.654;23.296;2023-04-07T10:40:40;94017.72;;;8.20;42.09
6024;BME280;3040;42.654;23.296;2023-04-07T10:43:09;94039.06;;;8.69;42.39
6024;BME280;3040;42.654;23.296;2023-04-07T10:45:55;94036.25;;;8.41;41.59
6024;BME280;3040;42.654;23.296;2023-04-07T10:48:24;94010.34;;;8.13;42.12
6024;BME280;3040;42.654;23.296;2023-04-07T10:51:15;94040.50;;;8.66;45.84
6024;BME280;3040;42.654;23.296;2023-04-07T10:57:12;94046.38;;;9.45;43.97
6024;BME280;3040;42.654;23.296;2023-04-07T11:00:14;94054.34;;;9.08;44.74
6024;BME280;3040;42.654;23.296;2023-04-07T11:02:42;94049.44;;;9.59;43.76
6024;BME280;3040;42.654;23.296;2023-04-07T11:05:19;94057.19;;;9.64;42.70
6024;BME280;3040;42.654;23.296;2023-04-07T11:07:49;94045.88;;;10.07;43.35
6024;BME280;3040;42.654;23.296;2023-04-07T11:10:16;94050.06;;;10.48;42.67
6024;BME280;3040;42.654;23.296;2023-04-07T11:12:44;94045.63;;;10.68;41.04
6024;BME280;3040;42.654;23.296;2023-04-07T11:15:25;94049.59;;;10.89;40.95
6024;BME280;3040;42.654;23.296;2023-04-07T11:18:12;94047.34;;;11.23;39.83
6024;BME280;3040;42.654;23.296;2023-04-07T11:20:45;94025.97;;;11.03;39.69
6024;BME280;3040;42.654;23.296;2023-04-07T11:23:12;94049.38;;;10.51;41.46
6024;BME280;3040;42.654;23.296;2023-04-07T11:25:44;94042.38;;;11.06;42.25
6024;BME280;3040;42.654;23.296;2023-04-07T11:28:12;94050.22;;;10.55;39.74
6024;BME280;3040;42.654;23.296;2023-04-07T11:30:46;94047.88;;;10.81;40.64
6024;BME280;3040;42.654;23.296;2023-04-07T11:33:15;94040.06;;;11.04;41.18
6024;BME280;3040;42.654;23.296;2023-04-07T11:35:50;94058.00;;;11.07;41.56
6024;BME280;3040;42.654;23.296;2023-04-07T11:38:18;94050.97;;;11.15;40.78
6024;BME280;3040;42.654;23.296;2023-04-07T11:40:45;94019.22;;;10.03;41.47
6024;BME280;3040;42.654;23.296;2023-04-07T11:43:17;94072.38;;;10.59;41.64
6024;BME280;3040;42.654;23.296;2023-04-07T11:46:02;93976.66;;;10.15;42.40
6024;BME280;3040;42.654;23.296;2023-04-07T11:48:31;94059.81;;;10.72;41.39
6024;BME280;3040;42.654;23.296;2023-04-07T11:50:58;94052.09;;;10.82;42.24
6024;BME280;3040;42.654;23.296;2023-04-07T11:53:27;94041.19;;;10.72;40.43
6024;BME280;3040;42.654;23.296;2023-04-07T11:56:05;94047.09;;;10.81;42.36
6024;BME280;3040;42.654;23.296;2023-04-07T11:58:34;94043.56;;;11.24;42.32
6024;BME280;3040;42.654;23.296;2023-04-07T12:01:03;94052.50;;;11.16;42.23
6024;BME280;3040;42.654;23.296;2023-04-07T12:03:34;94047.59;;;11.49;41.99
6024;BME280;3040;42.654;23.296;2023-04-07T12:06:02;94058.81;;;11.58;41.36
6024;BME280;3040;42.654;23.296;2023-04-07T12:08:39;94049.50;;;11.83;41.34
6024;BME280;3040;42.654;23.296;2023-04-07T12:11:06;94058.63;;;12.02;39.49
6024;BME280;3040;42.654;23.296;2023-04-07T12:13:34;94045.38;;;12.05;40.38
6024;BME280;3040;42.654;23.296;2023-04-07T12:16:02;94045.34;;;12.44;39.15
6024;BME280;3040;42.654;23.296;2023-04-07T12:18:30;93966.03;;;12.18;37.88
6024;BME280;3040;42.654;23.296;2023-04-07T12:20:59;94052.00;;;12.95;38.81
6024;BME280;3040;42.654;23.296;2023-04-07T12:23:26;93928.00;;;12.89;36.53
6024;BME280;3040;42.654;23.296;2023-04-07T12:25:53;94054.22;;;13.62;36.20
6024;BME280;3040;42.654;23.296;2023-04-07T12:28:20;94052.47;;;13.47;35.74
6024;BME280;3040;42.654;23.296;2023-04-07T12:30:47;94057.81;;;13.47;36.51
6024;BME280;3040;42.654;23.296;2023-04-07T12:33:15;94048.03;;;13.58;36.46
6024;BME280;3040;42.654;23.296;2023-04-07T12:35:42;94051.56;;;13.39;37.13
6024;BME280;3040;42.654;23.296;2023-04-07T12:38:09;93965.66;;;12.61;37.42
6024;BME280;3040;42.654;23.296;2023-04-07T12:40:37;94015.84;;;12.33;37.83
6024;BME280;3040;42.654;23.296;2023-04-07T12:43:04;94058.84;;;12.74;38.14
6024;BME280;3040;42.654;23.296;2023-04-07T12:45:31;94031.09;;;12.55;38.47
6024;BME280;3040;42.654;23.296;2023-04-07T12:47:58;93875.41;;;11.37;38.34
6024;BME280;3040;42.654;23.296;2023-04-07T12:50:28;94057.31;;;12.73;37.98
6024;BME280;3040;42.654;23.296;2023-04-07T12:52:55;94061.53;;;12.96;37.63
6024;BME280;3040;42.654;23.296;2023-04-07T12:55:23;94051.41;;;13.28;37.03
6024;BME280;3040;42.654;23.296;2023-04-07T12:57:50;94049.09;;;13.27;37.07
6024;BME280;3040;42.654;23.296;2023-04-07T13:00:17;94062.91;;;13.32;37.29
6024;BME280;3040;42.654;23.296;2023-04-07T13:02:44;94037.16;;;12.75;38.29
6024;BME280;3040;42.654;23.296;2023-04-07T13:05:11;94037.84;;;12.72;37.37
6024;BME280;3040;42.654;23.296;2023-04-07T13:07:39;94073.38;;;12.34;39.15
6024;BME280;3040;42.654;23.296;2023-04-07T13:10:07;94069.25;;;12.17;38.94
6024;BME280;3040;42.654;23.296;2023-04-07T13:12:34;94033.50;;;11.83;39.17
6024;BME280;3040;42.654;23.296;2023-04-07T13:15:02;94049.50;;;10.27;42.75
6024;BME280;3040;42.654;23.296;2023-04-07T13:17:29;94071.13;;;11.00;42.61
6024;BME280;3040;42.654;23.296;2023-04-07T13:19:56;94071.66;;;11.37;41.02
6024;BME280;3040;42.654;23.296;2023-04-07T13:22:23;94032.59;;;10.78;41.03
6024;BME280;3040;42.654;23.296;2023-04-07T13:24:51;94067.78;;;11.19;42.40
6024;BME280;3040;42.654;23.296;2023-04-07T13:27:18;94070.97;;;11.09;42.78
6024;BME280;3040;42.654;23.296;2023-04-07T13:29:45;94063.50;;;11.30;41.56